Time;durP1;ratioP1;P1;durP2;ratioP2;P2;SDS_P1;SDS_P2;PMS_P1;PMS_P2;Temp;Humidity;BMP_temperature;BMP_pressure;BME280_temperature;BME280_humidity;BME280_pressure;Samples;Min_cycle;Max_cycle;Signal;HPM_P1;HPM_P2
2023/12/31 00:01:17;;;;;;;0.65;0.65;;;;;;;4.13;84.03;97147.94;5026349;28;20040;-70
2023/12/31 00:03:44;;;;;;;0.95;0.95;;;;;;;4.12;84.38;97148.94;5030014;28;20042;-71
2023/12/31 00:06:13;;;;;;;1.08;1.08;;;;;;;4.12;84.43;97134.91;5029637;28;20505;-71
2023/12/31 00:08:41;;;;;;;1.02;1.02;;;;;;;4.12;84.42;97140.19;5032427;28;20048;-71
2023/12/31 00:11:10;;;;;;;0.35;0.35;;;;;;;4.11;84.24;97138.53;5030758;28;20393;-72
2023/12/31 00:13:38;;;;;;;0.88;0.88;;;;;;;4.16;84.38;97138.84;5022695;28;20052;-71
2023/12/31 00:16:06;;;;;;;1.13;1.13;;;;;;;4.19;84.49;97135.88;5019902;28;20065;-70
2023/12/31 00:18:34;;;;;;;0.90;0.90;;;;;;;4.17;83.99;97130.75;5021873;28;20057;-70
2023/12/31 00:21:02;;;;;;;0.75;0.75;;;;;;;4.13;84.57;97132.09;5034997;28;20522;-70
2023/12/31 00:23:32;;;;;;;0.22;0.22;;;;;;;4.12;84.96;97124.34;5020177;28;20357;-71
2023/12/31 00:25:59;;;;;;;0.70;0.70;;;;;;;4.18;84.57;97128.94;5022372;28;20481;-70
2023/12/31 00:28:27;;;;;;;1.00;1.00;;;;;;;4.21;84.19;97118.88;5023548;28;20051;-72
2023/12/31 00:30:55;;;;;;;0.77;0.77;;;;;;;4.22;84.32;97119.72;5026536;28;20513;-72
2023/12/31 00:33:23;;;;;;;0.28;0.28;;;;;;;4.30;84.14;97117.88;5015163;28;20382;-71
2023/12/31 00:35:50;;;;;;;0.88;0.88;;;;;;;4.33;84.02;97112.28;5015448;28;20042;-71
2023/12/31 00:38:18;;;;;;;0.75;0.75;;;;;;;4.43;84.37;97109.44;5021982;28;20045;-71
2023/12/31 00:40:47;;;;;;;1.05;1.05;;;;;;;4.46;83.65;97095.91;5025788;28;20042;-71
2023/12/31 00:43:15;;;;;;;0.85;0.85;;;;;;;4.40;83.35;97097.38;5020231;28;20088;-71
2023/12/31 00:45:42;;;;;;;1.08;1.08;;;;;;;4.40;83.93;97096.56;5028174;28;20112;-72
2023/12/31 00:48:11;;;;;;;0.30;0.30;;;;;;;4.58;83.01;97099.81;5021506;28;20392;-71
2023/12/31 00:50:39;;;;;;;0.65;0.65;;;;;;;4.54;84.20;97093.25;5030107;28;20045;-71
2023/12/31 00:53:07;;;;;;;0.90;0.90;;;;;;;4.55;83.21;97084.31;5031172;28;20517;-71
2023/12/31 00:55:38;;;;;;;0.30;0.30;;;;;;;4.56;83.20;97096.53;5026389;28;20482;-71
2023/12/31 00:58:08;;;;;;;0.30;0.30;;;;;;;4.54;83.19;97081.84;5024519;28;20410;-70
2023/12/31 01:00:36;;;;;;;1.00;1.00;;;;;;;4.57;83.07;97074.38;5020997;28;20072;-74
2023/12/31 01:03:04;;;;;;;0.77;0.77;;;;;;;4.61;83.43;97070.41;5020809;28;20041;-71
2023/12/31 01:05:32;;;;;;;1.00;1.00;;;;;;;4.80;83.88;97079.75;5028198;28;20080;-71
2023/12/31 01:08:00;;;;;;;0.98;0.98;;;;;;;4.88;85.70;97073.63;5021685;28;20730;-71
2023/12/31 01:10:28;;;;;;;1.33;1.33;;;;;;;4.78;82.79;97063.25;5016568;28;20041;-72
2023/12/31 01:12:55;;;;;;;0.90;0.90;;;;;;;4.75;83.16;97072.34;5035487;28;20603;-73
2023/12/31 01:15:24;;;;;;;0.98;0.98;;;;;;;4.97;84.54;97080.53;5028073;28;20050;-71
2023/12/31 01:17:52;;;;;;;0.90;0.90;;;;;;;4.76;82.50;97071.38;5028775;28;20069;-71
2023/12/31 01:20:19;;;;;;;0.75;0.75;;;;;;;4.81;83.66;97070.84;5025760;28;20045;-72
2023/12/31 01:22:47;;;;;;;1.08;1.08;;;;;;;5.44;87.41;97068.03;5018540;28;20041;-72
2023/12/31 01:25:14;;;;;;;0.70;0.70;;;;;;;5.52;85.33;97070.59;5022011;28;20033;-73
2023/12/31 01:27:42;;;;;;;0.20;0.20;;;;;;;5.59;86.59;97070.75;5022122;28;20609;-71
2023/12/31 01:30:11;;;;;;;0.75;0.75;;;;;;;5.53;84.90;97058.19;5017421;28;20175;-71
2023/12/31 01:32:40;;;;;;;0.43;0.43;;;;;;;5.86;87.55;97054.31;5019540;28;20471;-74
2023/12/31 01:35:09;;;;;;;0.77;0.77;;;;;;;5.91;84.62;97055.63;5015743;28;20046;-72
2023/12/31 01:37:36;;;;;;;0.68;0.68;;;;;;;5.90;82.43;97054.81;5020123;28;20038;-72
2023/12/31 01:40:06;;;;;;;0.63;0.63;;;;;;;6.10;83.99;97047.19;5012443;28;20038;-72
2023/12/31 01:42:33;;;;;;;0.30;0.30;;;;;;;5.84;81.79;97050.19;5013232;28;20460;-71
2023/12/31 01:45:04;;;;;;;0.60;0.60;;;;;;;5.99;84.64;97042.31;5028636;28;20041;-76
2023/12/31 01:47:33;;;;;;;0.70;0.70;;;;;;;5.73;79.98;97046.13;5028700;28;20049;-71
2023/12/31 01:50:03;;;;;;;0.88;0.88;;;;;;;5.60;81.88;97038.00;5026676;28;20053;-71
2023/12/31 01:52:31;;;;;;;1.02;1.02;;;;;;;5.54;82.37;97033.38;5038395;28;20041;-72
2023/12/31 01:55:00;;;;;;;0.95;0.95;;;;;;;5.41;82.28;97035.78;5013133;28;20046;-71
2023/12/31 01:57:30;;;;;;;0.68;0.68;;;;;;;5.36;81.80;97028.38;5017832;28;20037;-72
2023/12/31 01:59:58;;;;;;;0.93;0.93;;;;;;;5.16;80.66;97017.44;5018486;28;20045;-75
2023/12/31 02:02:25;;;;;;;1.00;1.00;;;;;;;5.13;81.09;97019.59;5010791;28;20069;-72
2023/12/31 02:04:53;;;;;;;0.95;0.95;;;;;;;5.03;81.39;97019.84;5028634;28;20050;-72
2023/12/31 02:07:22;;;;;;;0.82;0.82;;;;;;;5.04;83.21;97020.66;5024158;28;20061;-72
2023/12/31 02:09:50;;;;;;;0.73;0.73;;;;;;;4.94;81.52;97015.59;5019828;28;20064;-72
2023/12/31 02:12:18;;;;;;;0.80;0.80;;;;;;;4.88;81.42;97004.91;5017542;28;20050;-74
2023/12/31 02:14:45;;;;;;;0.98;0.98;;;;;;;5.06;87.05;97000.16;5030162;28;20047;-71
2023/12/31 02:17:13;;;;;;;0.70;0.70;;;;;;;5.08;82.01;96998.16;5024090;28;20157;-72
2023/12/31 02:19:41;;;;;;;1.00;1.00;;;;;;;5.10;82.08;96993.50;5023355;28;20056;-72
2023/12/31 02:22:09;;;;;;;0.68;0.68;;;;;;;5.16;82.12;96987.53;5026043;28;20053;-72
2023/12/31 02:24:45;;;;;;;1.00;1.00;;;;;;;5.38;86.66;96985.88;5015053;28;20038;-71
2023/12/31 02:27:15;;;;;;;0.70;0.70;;;;;;;5.34;83.20;96982.75;5015742;28;20612;-75
2023/12/31 02:29:43;;;;;;;0.63;0.63;;;;;;;5.29;81.02;96977.19;5021212;28;20049;-72
2023/12/31 02:32:10;;;;;;;0.85;0.85;;;;;;;5.11;80.76;96972.16;5022511;28;20045;-72
2023/12/31 02:34:40;;;;;;;0.60;0.60;;;;;;;5.01;81.55;96968.09;5014827;28;20045;-72
2023/12/31 02:37:08;;;;;;;0.93;0.93;;;;;;;4.98;81.84;96961.38;5018536;28;20053;-72
2023/12/31 02:39:36;;;;;;;0.85;0.85;;;;;;;4.90;81.88;96958.75;5021964;28;20056;-71
2023/12/31 02:42:04;;;;;;;0.70;0.70;;;;;;;5.04;85.52;96957.19;5026793;28;20049;-74
2023/12/31 02:44:33;;;;;;;0.60;0.60;;;;;;;4.96;81.95;96957.25;5019927;28;20045;-71
2023/12/31 02:47:01;;;;;;;1.00;1.00;;;;;;;4.90;82.14;96952.66;5019336;28;20046;-71
2023/12/31 02:49:28;;;;;;;1.08;1.08;;;;;;;4.82;82.49;96950.06;5025030;28;20511;-72
2023/12/31 02:51:56;;;;;;;0.82;0.82;;;;;;;4.80;82.74;96948.41;5017335;28;20100;-71
2023/12/31 02:54:23;;;;;;;0.38;0.38;;;;;;;4.93;84.57;96944.38;5024662;28;20404;-74
2023/12/31 02:56:51;;;;;;;0.80;0.80;;;;;;;4.91;83.18;96941.91;5026092;28;20045;-71
2023/12/31 02:59:19;;;;;;;0.90;0.90;;;;;;;4.97;82.62;96935.94;5023691;28;20494;-71
2023/12/31 03:01:48;;;;;;;0.90;0.90;;;;;;;4.97;82.33;96937.75;5027643;28;20579;-70
2023/12/31 03:04:16;;;;;;;0.90;0.90;;;;;;;4.93;82.39;96928.50;5020852;28;20140;-70
2023/12/31 03:06:47;;;;;;;0.95;0.95;;;;;;;4.92;82.42;96924.22;5021909;28;20034;-71
2023/12/31 03:09:15;;;;;;;0.85;0.85;;;;;;;5.06;81.70;96928.75;5019593;28;20046;-73
2023/12/31 03:11:43;;;;;;;0.80;0.80;;;;;;;4.99;82.15;96927.78;5025233;28;20095;-73
2023/12/31 03:14:10;;;;;;;0.80;0.80;;;;;;;4.91;82.37;96919.94;5027203;28;20061;-70
2023/12/31 03:16:43;;;;;;;0.80;0.80;;;;;;;4.89;82.70;96920.09;5020531;28;20048;-71
2023/12/31 03:19:13;;;;;;;1.02;1.02;;;;;;;4.86;82.68;96917.81;5029099;28;20050;-72
2023/12/31 03:21:41;;;;;;;1.10;1.10;;;;;;;4.84;82.62;96919.00;5018677;28;20140;-71
2023/12/31 03:24:09;;;;;;;0.20;0.20;;;;;;;4.82;82.80;96910.41;5027614;28;20411;-71
2023/12/31 03:26:37;;;;;;;1.05;1.05;;;;;;;4.82;82.78;96907.75;5017090;28;20137;-71
2023/12/31 03:29:04;;;;;;;1.10;1.10;;;;;;;4.79;83.02;96906.28;5023838;28;20054;-78
2023/12/31 03:31:32;;;;;;;1.13;1.13;;;;;;;4.80;83.12;96905.28;5024322;28;20033;-72
2023/12/31 03:33:59;;;;;;;0.70;0.70;;;;;;;4.78;82.96;96894.06;5021439;28;20132;-72
2023/12/31 03:36:28;;;;;;;1.25;1.25;;;;;;;4.77;83.00;96895.91;5027556;28;20052;-71
2023/12/31 03:38:56;;;;;;;0.60;0.60;;;;;;;4.76;83.19;96890.81;5024916;28;20571;-71
2023/12/31 03:41:24;;;;;;;1.08;1.08;;;;;;;4.74;83.16;96893.63;5029515;28;20519;-73
2023/12/31 03:43:51;;;;;;;1.02;1.02;;;;;;;4.73;83.12;96888.50;5030594;28;20048;-73
2023/12/31 03:46:19;;;;;;;0.93;0.93;;;;;;;4.70;83.41;96897.59;5024145;28;20041;-71
2023/12/31 03:48:47;;;;;;;1.00;1.00;;;;;;;4.71;83.41;96893.97;5025690;28;20243;-71
2023/12/31 03:51:16;;;;;;;0.88;0.88;;;;;;;4.70;83.39;96889.66;5021061;28;20072;-72
2023/12/31 03:53:44;;;;;;;0.55;0.55;;;;;;;4.71;83.26;96879.91;5019754;28;20060;-71
2023/12/31 03:56:12;;;;;;;0.90;0.90;;;;;;;4.70;83.38;96878.28;5017531;28;20048;-71
2023/12/31 03:58:40;;;;;;;0.68;0.68;;;;;;;4.71;83.63;96879.91;5015228;28;20370;-73
2023/12/31 04:01:07;;;;;;;0.98;0.98;;;;;;;4.72;83.29;96858.59;5020795;28;20042;-70
2023/12/31 04:03:35;;;;;;;1.00;1.00;;;;;;;4.67;83.58;96873.34;5023696;28;20504;-70
2023/12/31 04:06:04;;;;;;;0.30;0.30;;;;;;;4.68;83.54;96872.34;5026213;28;20408;-70
2023/12/31 04:08:31;;;;;;;0.98;0.98;;;;;;;4.70;83.52;96865.06;5021249;28;20068;-70
2023/12/31 04:11:00;;;;;;;0.77;0.77;;;;;;;4.66;83.64;96869.06;5017272;28;20052;-71
2023/12/31 04:13:29;;;;;;;0.30;0.30;;;;;;;4.64;83.93;96853.38;5020913;28;20409;-70
2023/12/31 04:15:56;;;;;;;1.63;1.63;;;;;;;4.73;83.96;96857.59;5021165;28;20054;-73
2023/12/31 04:18:25;;;;;;;1.33;1.33;;;;;;;4.67;83.56;96853.00;5020856;28;20038;-72
2023/12/31 04:20:52;;;;;;;1.23;1.23;;;;;;;4.63;83.86;96842.97;5017585;28;20049;-72
2023/12/31 04:23:20;;;;;;;1.25;1.25;;;;;;;4.60;84.03;96852.06;5026830;28;20125;-71
2023/12/31 04:25:48;;;;;;;1.13;1.13;;;;;;;4.57;83.79;96833.13;5017515;28;20050;-71
2023/12/31 04:28:17;;;;;;;0.70;0.70;;;;;;;4.50;84.13;96830.34;5021387;28;20048;-71
2023/12/31 04:30:45;;;;;;;1.65;1.65;;;;;;;4.47;84.31;96833.34;5029140;28;20052;-72
2023/12/31 04:33:13;;;;;;;0.68;0.68;;;;;;;4.42;84.36;96833.88;5016223;28;20058;-73
2023/12/31 04:35:41;;;;;;;0.70;0.70;;;;;;;4.42;84.62;96836.50;5024181;28;20069;-72
2023/12/31 04:38:17;;;;;;;0.98;0.98;;;;;;;4.41;84.54;96826.94;5020625;28;20046;-71
2023/12/31 04:40:45;;;;;;;0.95;0.95;;;;;;;4.41;84.63;96829.59;5023603;28;20046;-71
2023/12/31 04:43:13;;;;;;;0.75;0.75;;;;;;;4.37;84.68;96824.81;5014771;28;20109;-71
2023/12/31 04:45:42;;;;;;;1.02;1.02;;;;;;;4.40;84.66;96830.56;5020344;28;20046;-71
2023/12/31 04:48:10;;;;;;;0.80;0.80;;;;;;;4.41;84.37;96826.94;5024278;28;20144;-71
2023/12/31 04:50:37;;;;;;;1.92;1.92;;;;;;;4.37;84.66;96828.28;5033051;28;20046;-72
2023/12/31 04:53:05;;;;;;;0.80;0.80;;;;;;;4.35;84.83;96835.56;5023177;28;20069;-69
2023/12/31 04:55:34;;;;;;;0.75;0.75;;;;;;;4.33;84.92;96831.47;5018193;28;20762;-71
2023/12/31 04:58:01;;;;;;;0.80;0.80;;;;;;;4.29;85.01;96828.34;5019394;28;20056;-72
2023/12/31 05:00:29;;;;;;;0.95;0.95;;;;;;;4.23;85.25;96828.22;5019645;28;20045;-71
2023/12/31 05:02:58;;;;;;;0.90;0.90;;;;;;;4.21;85.27;96824.94;5032753;28;20053;-71
2023/12/31 05:05:27;;;;;;;0.93;0.93;;;;;;;4.20;85.37;96818.00;5019605;28;20045;-71
2023/12/31 05:07:54;;;;;;;1.05;1.05;;;;;;;4.18;85.42;96810.25;5015676;28;20038;-71
2023/12/31 05:10:22;;;;;;;0.85;0.85;;;;;;;4.19;85.59;96793.41;5019862;28;20124;-71
2023/12/31 05:12:50;;;;;;;0.95;0.95;;;;;;;4.21;85.63;96798.53;5027904;28;20041;-73
2023/12/31 05:15:17;;;;;;;0.88;0.88;;;;;;;4.23;85.42;96796.53;5026620;22;20042;-75
2023/12/31 05:17:45;;;;;;;0.80;0.80;;;;;;;4.29;85.73;96788.72;5011890;28;20560;-72
2023/12/31 05:20:14;;;;;;;1.02;1.02;;;;;;;4.28;85.18;96791.53;5012668;28;20080;-73
2023/12/31 05:22:42;;;;;;;1.30;1.30;;;;;;;4.28;85.16;96775.69;5011353;28;20121;-73
2023/12/31 05:25:10;;;;;;;0.80;0.80;;;;;;;4.37;85.39;96766.69;5014483;28;20049;-74
2023/12/31 05:27:38;;;;;;;0.90;0.90;;;;;;;4.28;85.01;96767.75;5019616;28;20099;-73
2023/12/31 05:30:07;;;;;;;0.93;0.93;;;;;;;4.28;85.48;96759.84;5025167;28;20124;-73
2023/12/31 05:32:35;;;;;;;0.38;0.38;;;;;;;4.22;85.36;96742.88;5025234;28;20432;-73
2023/12/31 05:35:02;;;;;;;0.77;0.77;;;;;;;4.23;85.43;96738.44;5027058;28;20045;-73
2023/12/31 05:37:31;;;;;;;0.22;0.22;;;;;;;4.28;85.38;96749.28;5014504;28;20120;-73
2023/12/31 05:40:01;;;;;;;1.02;1.02;;;;;;;4.25;85.38;96731.97;5013330;28;20038;-73
2023/12/31 05:42:29;;;;;;;0.28;0.28;;;;;;;4.29;85.36;96730.63;5026442;28;20573;-74
2023/12/31 05:44:56;;;;;;;1.10;1.10;;;;;;;4.29;85.37;96722.69;5012947;28;20046;-74
2023/12/31 05:47:24;;;;;;;0.75;0.75;;;;;;;4.30;85.44;96720.88;5005680;28;20136;-73
2023/12/31 05:50:12;;;;;;;1.05;1.05;;;;;;;4.27;85.44;96721.22;5012044;28;20049;-74
2023/12/31 05:52:41;;;;;;;0.77;0.77;;;;;;;4.28;85.47;96707.84;5024483;28;20045;-73
2023/12/31 05:55:09;;;;;;;0.82;0.82;;;;;;;4.31;85.25;96718.06;5021433;28;20521;-73
2023/12/31 05:57:37;;;;;;;1.05;1.05;;;;;;;4.30;85.20;96711.13;5025697;28;20558;-74
2023/12/31 06:00:06;;;;;;;0.95;0.95;;;;;;;4.27;85.44;96729.13;5027091;28;20060;-73
2023/12/31 06:02:40;;;;;;;0.95;0.95;;;;;;;4.28;85.29;96733.44;5017580;28;20037;-73
2023/12/31 06:05:08;;;;;;;1.00;1.00;;;;;;;4.22;85.24;96734.16;5022972;28;20512;-74
2023/12/31 06:07:36;;;;;;;0.77;0.77;;;;;;;4.17;85.62;96731.19;5025539;28;20040;-75
2023/12/31 06:10:06;;;;;;;0.80;0.80;;;;;;;4.13;85.64;96730.75;5019863;28;20049;-73
2023/12/31 06:12:33;;;;;;;0.77;0.77;;;;;;;4.11;85.79;96734.56;5024717;28;20511;-73
2023/12/31 06:15:06;;;;;;;0.95;0.95;;;;;;;4.05;85.89;96728.97;5023038;28;20056;-72
2023/12/31 06:17:33;;;;;;;0.65;0.65;;;;;;;4.04;86.07;96737.91;5029403;28;20053;-73
2023/12/31 06:20:02;;;;;;;0.95;0.95;;;;;;;4.06;86.05;96732.41;5025912;28;20042;-73
2023/12/31 06:22:29;;;;;;;0.90;0.90;;;;;;;4.07;85.99;96728.78;5029266;28;20049;-73
2023/12/31 06:24:57;;;;;;;0.85;0.85;;;;;;;4.10;85.82;96732.91;5036428;28;20049;-73
2023/12/31 06:27:26;;;;;;;0.90;0.90;;;;;;;4.10;85.73;96725.81;5034737;28;20091;-73
2023/12/31 06:29:55;;;;;;;0.60;0.60;;;;;;;4.10;85.67;96724.97;5034478;28;20038;-71
2023/12/31 06:32:22;;;;;;;0.77;0.77;;;;;;;4.12;85.61;96731.75;5033637;28;20120;-70
2023/12/31 06:34:51;;;;;;;0.73;0.73;;;;;;;4.10;85.59;96738.19;5029287;28;20046;-71
2023/12/31 06:37:18;;;;;;;0.98;0.98;;;;;;;4.13;85.61;96735.22;5032803;28;20072;-71
2023/12/31 06:39:46;;;;;;;1.10;1.10;;;;;;;4.18;85.26;96730.19;5032694;28;20076;-72
2023/12/31 06:42:14;;;;;;;0.80;0.80;;;;;;;4.20;85.33;96725.56;5029007;28;20067;-72
2023/12/31 06:44:43;;;;;;;0.80;0.80;;;;;;;4.16;85.21;96729.56;5029758;28;20656;-73
2023/12/31 06:47:11;;;;;;;0.95;0.95;;;;;;;4.20;85.25;96721.13;5030571;28;20055;-73
2023/12/31 06:49:39;;;;;;;0.98;0.98;;;;;;;4.13;85.19;96720.19;5031374;28;20052;-72
2023/12/31 06:52:06;;;;;;;0.30;0.30;;;;;;;4.06;85.53;96714.75;5030862;28;20453;-73
2023/12/31 06:54:34;;;;;;;0.90;0.90;;;;;;;4.18;85.80;96712.53;5028855;28;20049;-73
2023/12/31 06:57:01;;;;;;;1.08;1.08;;;;;;;4.11;85.39;96711.63;5032091;28;20045;-72
2023/12/31 06:59:31;;;;;;;0.68;0.68;;;;;;;4.12;85.28;96712.44;5027153;28;20052;-73
2023/12/31 07:02:00;;;;;;;0.98;0.98;;;;;;;4.11;85.46;96716.06;5023770;28;20055;-72
2023/12/31 07:04:28;;;;;;;0.77;0.77;;;;;;;4.10;85.34;96709.16;5024763;28;20088;-73
2023/12/31 07:06:55;;;;;;;1.48;1.48;;;;;;;4.06;85.34;96706.84;5027904;28;20056;-73
2023/12/31 07:09:23;;;;;;;0.95;0.95;;;;;;;4.19;86.33;96706.25;5023514;28;20046;-73
2023/12/31 07:11:51;;;;;;;0.98;0.98;;;;;;;4.09;85.10;96689.84;5032215;28;20042;-73
2023/12/31 07:14:19;;;;;;;0.80;0.80;;;;;;;4.19;86.13;96676.41;5029089;28;20515;-73
2023/12/31 07:16:47;;;;;;;0.90;0.90;;;;;;;4.26;85.15;96690.53;5030399;28;20129;-73
2023/12/31 07:19:16;;;;;;;0.70;0.70;;;;;;;4.14;84.96;96689.31;5029437;28;20069;-73
2023/12/31 07:21:44;;;;;;;0.82;0.82;;;;;;;4.10;85.17;96685.38;5023746;28;20145;-73
2023/12/31 07:24:11;;;;;;;0.93;0.93;;;;;;;4.19;85.91;96686.97;5029107;28;20055;-73
2023/12/31 07:26:39;;;;;;;1.15;1.15;;;;;;;4.13;84.94;96687.69;5027140;28;20112;-73
2023/12/31 07:29:07;;;;;;;0.73;0.73;;;;;;;4.04;85.15;96685.09;5032825;28;20077;-74
2023/12/31 07:31:38;;;;;;;1.00;1.00;;;;;;;4.04;85.29;96679.00;5025885;28;20048;-72
2023/12/31 07:34:07;;;;;;;1.17;1.17;;;;;;;4.04;85.40;96684.28;5033461;28;20049;-71
2023/12/31 07:36:36;;;;;;;0.98;0.98;;;;;;;4.06;85.10;96685.72;5033820;28;20042;-74
2023/12/31 07:39:04;;;;;;;0.32;0.32;;;;;;;4.13;84.99;96693.78;5032432;28;20562;-73
2023/12/31 07:41:32;;;;;;;0.88;0.88;;;;;;;4.10;84.93;96693.31;5026335;28;20120;-74
2023/12/31 07:44:00;;;;;;;0.63;0.63;;;;;;;4.12;84.92;96696.59;5031645;28;20060;-73
2023/12/31 07:46:28;;;;;;;1.00;1.00;;;;;;;4.15;84.85;96701.53;5031755;28;20049;-73
2023/12/31 07:48:56;;;;;;;0.88;0.88;;;;;;;4.21;84.52;96688.44;5032645;28;20069;-74
2023/12/31 07:51:24;;;;;;;1.15;1.15;;;;;;;4.25;84.23;96684.44;5031658;28;20057;-73
2023/12/31 07:53:53;;;;;;;0.93;0.93;;;;;;;4.25;84.42;96694.19;5029215;28;20060;-74
2023/12/31 07:56:20;;;;;;;1.15;1.15;;;;;;;4.31;84.27;96693.47;5037689;28;20045;-74
2023/12/31 07:58:48;;;;;;;1.00;1.00;;;;;;;4.31;84.16;96688.19;5030088;28;20042;-73
2023/12/31 08:01:16;;;;;;;0.93;0.93;;;;;;;4.33;84.28;96684.38;5029522;28;20167;-76
2023/12/31 08:03:45;;;;;;;0.98;0.98;;;;;;;4.39;83.82;96686.28;5029402;28;20041;-75
2023/12/31 08:06:13;;;;;;;0.22;0.22;;;;;;;4.42;83.54;96682.47;5024192;28;20408;-78
2023/12/31 08:08:41;;;;;;;0.35;0.35;;;;;;;4.47;83.63;96682.75;5026317;28;20440;-75
2023/12/31 08:11:12;;;;;;;0.77;0.77;;;;;;;4.50;83.79;96666.53;5027573;28;20064;-75
2023/12/31 08:13:41;;;;;;;0.93;0.93;;;;;;;4.64;84.32;96678.16;5029649;28;20048;-75
2023/12/31 08:16:08;;;;;;;0.20;0.20;;;;;;;4.66;82.47;96668.22;5029856;28;20428;-75
2023/12/31 08:18:36;;;;;;;0.93;0.93;;;;;;;4.66;82.57;96658.47;5030282;28;20149;-75
2023/12/31 08:21:04;;;;;;;1.50;1.50;;;;;;;4.67;82.55;96654.00;5031802;28;20049;-75
2023/12/31 08:23:32;;;;;;;0.73;0.73;;;;;;;4.68;82.29;96645.06;5030008;28;20049;-74
2023/12/31 08:26:00;;;;;;;0.82;0.82;;;;;;;4.69;82.39;96647.53;5031594;28;20049;-78
2023/12/31 08:28:29;;;;;;;0.75;0.75;;;;;;;4.76;82.13;96656.38;5024166;28;20046;-75
2023/12/31 08:30:56;;;;;;;0.90;0.90;;;;;;;4.74;82.29;96657.56;5026584;28;20045;-75
2023/12/31 08:33:24;;;;;;;1.02;1.02;;;;;;;4.74;81.99;96645.16;5030553;28;20080;-75
2023/12/31 08:35:52;;;;;;;0.90;0.90;;;;;;;4.77;81.90;96649.28;5031997;28;20100;-75
2023/12/31 08:38:20;;;;;;;0.88;0.88;;;;;;;4.79;81.99;96653.34;5005571;28;20046;-75
2023/12/31 08:40:47;;;;;;;0.70;0.70;;;;;;;4.84;81.72;96652.00;5030622;28;20045;-73
2023/12/31 08:43:15;;;;;;;0.98;0.98;;;;;;;4.79;81.81;96652.53;5020745;28;20037;-76
2023/12/31 08:45:46;;;;;;;0.65;0.65;;;;;;;4.79;81.96;96648.06;5022437;28;20041;-75
2023/12/31 08:48:14;;;;;;;1.08;1.08;;;;;;;4.84;81.56;96639.59;5024838;28;20091;-75
2023/12/31 08:50:42;;;;;;;0.95;0.95;;;;;;;4.89;81.59;96653.09;5010636;28;20061;-76
2023/12/31 08:53:09;;;;;;;1.40;1.40;;;;;;;4.95;80.83;96640.97;5030030;28;20049;-76
2023/12/31 08:55:37;;;;;;;0.77;0.77;;;;;;;4.95;81.19;96641.78;5030775;28;20095;-74
2023/12/31 08:58:05;;;;;;;0.70;0.70;;;;;;;4.94;80.92;96642.78;5027155;28;20176;-75
2023/12/31 09:00:32;;;;;;;0.75;0.75;;;;;;;5.00;80.72;96641.22;5024953;28;20037;-73
2023/12/31 09:03:01;;;;;;;1.00;1.00;;;;;;;5.02;80.49;96631.28;5021326;28;20069;-76
2023/12/31 09:05:29;;;;;;;1.17;1.17;;;;;;;5.00;80.51;96617.44;5025195;28;20496;-76
2023/12/31 09:07:57;;;;;;;1.08;1.08;;;;;;;5.09;80.22;96627.72;5035913;28;20128;-75
2023/12/31 09:10:26;;;;;;;0.93;0.93;;;;;;;5.08;80.14;96623.47;5028247;28;20046;-73
2023/12/31 09:12:54;;;;;;;0.93;0.93;;;;;;;5.12;79.92;96626.53;5022851;28;20057;-75
2023/12/31 09:15:21;;;;;;;0.85;0.85;;;;;;;5.16;79.78;96628.66;5024922;28;20051;-75
2023/12/31 09:17:49;;;;;;;1.05;1.05;;;;;;;5.21;79.62;96636.00;5035358;28;20115;-75
2023/12/31 09:20:18;;;;;;;0.95;0.95;;;;;;;5.22;79.44;96634.19;5021778;28;20069;-73
2023/12/31 09:22:47;;;;;;;1.17;1.17;;;;;;;5.28;79.47;96634.28;5024140;28;20041;-74
2023/12/31 09:25:16;;;;;;;0.90;0.90;;;;;;;5.30;79.11;96629.59;5027288;28;20503;-77
2023/12/31 09:27:44;;;;;;;0.95;0.95;;;;;;;5.31;78.95;96630.44;5028585;28;20099;-74
2023/12/31 09:30:12;;;;;;;0.90;0.90;;;;;;;5.35;79.11;96635.19;5031146;28;20061;-74
2023/12/31 09:32:40;;;;;;;0.60;0.60;;;;;;;5.34;79.00;96628.25;5013384;28;20068;-73
2023/12/31 09:35:08;;;;;;;1.00;1.00;;;;;;;5.36;78.72;96633.34;5030969;28;20057;-73
2023/12/31 09:37:37;;;;;;;1.10;1.10;;;;;;;5.38;78.52;96632.16;5031845;28;20049;-73
2023/12/31 09:40:06;;;;;;;0.85;0.85;;;;;;;5.37;78.63;96630.53;5031396;28;20152;-75
2023/12/31 09:42:43;;;;;;;0.75;0.75;;;;;;;5.40;78.34;96603.69;5029072;28;20041;-73
2023/12/31 09:45:12;;;;;;;0.90;0.90;;;;;;;5.44;78.31;96620.81;5013158;28;20049;-73
2023/12/31 09:47:40;;;;;;;0.77;0.77;;;;;;;5.45;78.25;96614.53;5031086;28;20112;-73
2023/12/31 09:50:09;;;;;;;0.82;0.82;;;;;;;5.46;78.35;96592.34;5030940;28;20057;-73
2023/12/31 09:52:39;;;;;;;0.77;0.77;;;;;;;5.47;78.25;96580.78;5024372;28;20080;-73
2023/12/31 09:55:08;;;;;;;0.90;0.90;;;;;;;5.52;77.89;96580.19;5013218;28;20489;-73
2023/12/31 09:57:35;;;;;;;0.93;0.93;;;;;;;5.56;78.02;96589.41;5022322;28;20049;-72
2023/12/31 10:00:05;;;;;;;0.30;0.30;;;;;;;5.58;77.87;96576.00;5022954;28;20132;-73
2023/12/31 10:02:39;;;;;;;0.63;0.63;;;;;;;5.64;77.65;96581.34;5034628;28;20488;-75
2023/12/31 10:05:07;;;;;;;0.98;0.98;;;;;;;5.71;77.79;96578.78;5020827;28;20060;-73
2023/12/31 10:07:35;;;;;;;0.88;0.88;;;;;;;5.73;77.39;96569.59;5034771;28;20049;-75
2023/12/31 10:10:06;;;;;;;1.00;1.00;;;;;;;5.71;77.21;96566.31;5017027;28;20481;-75
2023/12/31 10:12:34;;;;;;;0.68;0.68;;;;;;;5.73;77.57;96561.66;5034132;28;20116;-73
2023/12/31 10:15:01;;;;;;;0.88;0.88;;;;;;;5.76;77.06;96558.66;5023895;28;20046;-72
2023/12/31 10:17:29;;;;;;;0.50;0.50;;;;;;;5.77;77.29;96548.88;5029024;28;20405;-74
2023/12/31 10:19:57;;;;;;;0.40;0.40;;;;;;;5.81;77.05;96545.66;5030797;28;20450;-75
2023/12/31 10:22:25;;;;;;;0.98;0.98;;;;;;;5.76;77.11;96539.31;5033739;28;20056;-76
2023/12/31 10:24:53;;;;;;;1.10;1.10;;;;;;;5.76;77.30;96540.13;5034237;28;20151;-74
2023/12/31 10:27:22;;;;;;;0.90;0.90;;;;;;;5.78;77.26;96532.00;5034917;28;20073;-74
2023/12/31 10:29:52;;;;;;;0.90;0.90;;;;;;;5.79;77.31;96525.69;5038770;28;20037;-76
2023/12/31 10:32:21;;;;;;;0.90;0.90;;;;;;;5.80;77.20;96527.34;5036645;28;20484;-75
2023/12/31 10:35:02;;;;;;;0.82;0.82;;;;;;;5.81;76.99;96524.47;5041211;28;20107;-73
2023/12/31 10:37:30;;;;;;;0.85;0.85;;;;;;;5.87;76.87;96523.72;5033534;28;20038;-75
2023/12/31 10:39:57;;;;;;;0.90;0.90;;;;;;;5.92;76.65;96523.16;5032326;28;20485;-73
2023/12/31 10:42:27;;;;;;;1.48;1.48;;;;;;;5.91;76.39;96505.66;5030837;28;20048;-72
2023/12/31 10:44:57;;;;;;;0.82;0.82;;;;;;;5.94;76.55;96509.72;5034875;28;20050;-73
2023/12/31 10:47:28;;;;;;;1.00;1.00;;;;;;;5.97;76.61;96506.72;5025308;28;20124;-73
2023/12/31 10:49:57;;;;;;;0.70;0.70;;;;;;;5.98;76.35;96516.28;5030624;28;20119;-74
2023/12/31 10:52:28;;;;;;;0.75;0.75;;;;;;;6.05;75.87;96506.56;5024650;28;20050;-74
2023/12/31 10:54:57;;;;;;;0.88;0.88;;;;;;;6.02;75.85;96499.81;5032861;28;20045;-73
2023/12/31 10:57:27;;;;;;;1.20;1.20;;;;;;;6.10;75.68;96488.25;5034647;28;20054;-73
2023/12/31 10:59:56;;;;;;;0.88;0.88;;;;;;;6.10;75.61;96483.78;5033691;28;20045;-73
2023/12/31 11:02:26;;;;;;;0.93;0.93;;;;;;;6.12;75.74;96492.38;5034516;28;20053;-73
2023/12/31 11:04:55;;;;;;;0.65;0.65;;;;;;;6.14;75.54;96492.97;5016089;28;20053;-73
2023/12/31 11:07:23;;;;;;;1.08;1.08;;;;;;;6.21;75.34;96488.53;5033838;28;20049;-73
2023/12/31 11:09:50;;;;;;;1.02;1.02;;;;;;;6.28;74.85;96490.41;5033802;28;20041;-73
2023/12/31 11:12:18;;;;;;;0.20;0.20;;;;;;;6.29;74.92;96484.91;5015169;28;20455;-73
2023/12/31 11:14:50;;;;;;;0.85;0.85;;;;;;;6.34;74.20;96474.53;5033358;28;20077;-73
2023/12/31 11:17:28;;;;;;;1.05;1.05;;;;;;;6.39;74.27;96471.31;5033017;28;20067;-72
2023/12/31 11:20:23;;;;;;;0.85;0.85;;;;;;;6.38;74.25;96467.03;5028988;28;20041;-73
2023/12/31 11:22:54;;;;;;;0.77;0.77;;;;;;;6.38;74.40;96467.03;5019765;28;20041;-73
2023/12/31 11:25:23;;;;;;;0.68;0.68;;;;;;;6.42;73.81;96444.44;5027062;28;20042;-72
2023/12/31 11:27:53;;;;;;;0.20;0.20;;;;;;;6.44;73.93;96434.41;5026857;28;20451;-72
2023/12/31 11:30:46;;;;;;;1.00;1.00;;;;;;;6.42;73.65;96425.88;5029330;28;20049;-76
2023/12/31 11:33:16;;;;;;;0.90;0.90;;;;;;;6.45;73.52;96406.91;5041549;28;20057;-76
2023/12/31 11:35:45;;;;;;;1.17;1.17;;;;;;;6.47;73.46;96407.53;5034808;28;20037;-72
2023/12/31 11:38:13;;;;;;;0.93;0.93;;;;;;;6.50;73.49;96407.16;5033889;28;20041;-74
2023/12/31 11:40:41;;;;;;;0.82;0.82;;;;;;;6.58;73.00;96391.88;5032164;28;20052;-74
2023/12/31 11:43:13;;;;;;;0.88;0.88;;;;;;;6.54;73.21;96395.94;5032020;28;20115;-73
2023/12/31 11:45:45;;;;;;;0.90;0.90;;;;;;;6.58;73.01;96396.34;5033506;28;20132;-74
2023/12/31 11:48:32;;;;;;;0.82;0.82;;;;;;;6.57;72.69;96369.03;5035263;28;20049;-75